createdAt,value
2022-12-14T06:08:58.499Z,28.42
2022-12-14T06:29:32.451Z,27.30
2022-12-14T06:49:14.601Z,27.25
2022-12-14T06:52:07.582Z,27.23
2022-12-14T06:54:43.746Z,29.95
2022-12-14T06:57:10.908Z,27.23
2022-12-14T06:59:38.189Z,29.58
2022-12-14T07:02:05.634Z,26.00
2022-12-14T07:04:32.825Z,27.52
2022-12-14T07:06:59.991Z,30.55
2022-12-14T07:09:27.149Z,27.90
2022-12-14T07:11:54.341Z,29.83
2022-12-14T07:14:21.513Z,30.52
2022-12-14T07:16:49.218Z,28.88
2022-12-14T07:19:17.445Z,30.15
2022-12-14T07:21:44.589Z,26.70
2022-12-14T07:24:11.768Z,30.92
2022-12-14T07:26:38.993Z,32.80
2022-12-14T07:29:06.641Z,29.17
2022-12-14T07:31:33.894Z,31.00
2022-12-14T07:34:01.119Z,37.45
2022-12-14T07:36:29.420Z,35.53
2022-12-14T07:38:57.300Z,38.05
2022-12-14T07:41:30.418Z,31.75
2022-12-14T07:43:59.653Z,30.35
2022-12-14T07:46:29.337Z,29.67
2022-12-14T07:48:57.610Z,31.75
2022-12-14T07:51:33.219Z,29.73
2022-12-14T07:54:01.346Z,27.25
2022-12-14T07:56:32.392Z,27.30
2022-12-14T07:59:00.784Z,28.25
2022-12-14T08:01:34.016Z,28.55
2022-12-14T08:04:05.841Z,28.27
2022-12-14T08:06:33.726Z,27.88
2022-12-14T08:09:01.126Z,26.50
2022-12-14T08:11:28.721Z,27.40
2022-12-14T08:14:00.943Z,28.30
2022-12-14T08:16:28.702Z,26.08
2022-12-14T08:18:58.896Z,26.42
2022-12-14T08:21:27.569Z,28.48
2022-12-14T08:23:56.025Z,28.42
2022-12-14T08:26:27.359Z,26.77
2022-12-14T08:28:57.307Z,28.55
2022-12-14T08:31:26.174Z,31.17
2022-12-14T08:33:53.705Z,25.98
2022-12-14T08:36:29.053Z,26.20
2022-12-14T08:39:01.503Z,29.73
2022-12-14T08:41:29.394Z,26.45
2022-12-14T08:43:58.489Z,27.85
2022-12-14T08:46:27.831Z,27.38
2022-12-14T08:48:55.724Z,25.95
2022-12-14T08:51:24.084Z,27.58
2022-12-14T08:53:51.820Z,28.60
2022-12-14T08:56:21.367Z,27.52
2022-12-14T08:58:48.472Z,25.90
2022-12-14T09:01:19.549Z,25.33
2022-12-14T09:03:47.513Z,26.77
2022-12-14T09:06:17.157Z,24.92
2022-12-14T09:08:44.517Z,26.90
2022-12-14T09:11:13.727Z,29.88
2022-12-14T09:13:41.769Z,28.48
2022-12-14T09:16:17.342Z,24.88
2022-12-14T09:18:47.950Z,32.08
2022-12-14T09:21:15.541Z,25.35
2022-12-14T09:23:43.132Z,23.67
2022-12-14T09:26:18.607Z,26.73
2022-12-14T09:28:51.262Z,26.58
2022-12-14T09:31:21.300Z,25.30
2022-12-14T09:33:48.668Z,28.08
2022-12-14T09:36:23.187Z,24.27
2022-12-14T09:38:52.400Z,32.78
2022-12-14T09:41:34.917Z,28.33
2022-12-14T09:44:09.630Z,27.10
2022-12-14T09:46:42.969Z,28.95
2022-12-14T09:49:38.670Z,32.17
2022-12-14T09:52:07.222Z,27.53
2022-12-14T09:54:38.625Z,27.50
2022-12-14T09:57:26.097Z,30.92
2022-12-14T09:59:54.624Z,27.08
2022-12-14T10:02:32.878Z,26.75
2022-12-14T10:05:21.655Z,26.40
2022-12-14T10:08:02.580Z,25.70
2022-12-14T10:11:08.642Z,24.63
2022-12-14T10:13:55.662Z,28.17
2022-12-14T10:16:31.304Z,25.63
2022-12-14T10:19:02.704Z,29.33
2022-12-14T10:21:42.265Z,25.88
2022-12-14T10:24:15.318Z,28.17
2022-12-14T10:26:47.096Z,22.38
2022-12-14T10:29:16.403Z,28.27
2022-12-14T10:31:58.682Z,27.30
2022-12-14T10:34:29.664Z,28.85
2022-12-14T10:37:06.895Z,25.77
2022-12-14T10:39:36.570Z,28.13
2022-12-14T10:42:32.038Z,26.90
2022-12-14T10:48:11.448Z,24.65
2022-12-14T10:50:57.059Z,25.47
2022-12-14T10:53:33.443Z,26.63
2022-12-14T10:56:08.792Z,27.48
2022-12-14T10:58:35.972Z,27.48
2022-12-14T11:01:03.260Z,27.17
2022-12-14T11:03:30.791Z,24.73
2022-12-14T11:05:57.943Z,25.92
2022-12-14T11:08:48.804Z,24.45
2022-12-14T11:11:25.953Z,24.98
2022-12-14T11:13:55.349Z,27.92
2022-12-14T11:16:36.610Z,23.67
2022-12-14T11:19:06.645Z,26.85
2022-12-14T11:21:36.341Z,26.95
2022-12-14T11:24:03.977Z,29.60
2022-12-14T11:26:37.210Z,24.10
2022-12-14T11:29:26.371Z,22.63
2022-12-14T11:31:53.576Z,26.10
2022-12-14T11:34:23.512Z,24.83
2022-12-14T11:36:50.770Z,25.77
2022-12-14T11:39:22.737Z,28.40
2022-12-14T11:41:58.791Z,25.85
2022-12-14T11:44:27.657Z,26.52
2022-12-14T11:47:02.275Z,28.58
2022-12-14T11:49:35.735Z,25.65
2022-12-14T11:52:20.196Z,23.50
2022-12-14T11:54:54.371Z,22.23
2022-12-14T11:57:24.711Z,22.70
2022-12-14T11:59:54.499Z,20.40
2022-12-14T12:02:30.398Z,22.42
2022-12-14T12:05:20.747Z,22.50
2022-12-14T12:07:50.609Z,19.98
2022-12-14T12:10:20.999Z,20.42
2022-12-14T12:12:54.293Z,20.17
2022-12-14T12:15:36.403Z,20.95
2022-12-14T12:18:46.442Z,22.20
2022-12-14T12:21:29.341Z,24.02
2022-12-14T12:24:05.243Z,22.17
2022-12-14T12:26:34.994Z,20.63
2022-12-14T12:29:15.440Z,21.60
2022-12-14T12:31:50.486Z,23.45
2022-12-14T12:34:40.696Z,24.80
2022-12-14T12:37:30.502Z,19.08
2022-12-14T12:40:02.397Z,21.40
2022-12-14T12:42:41.394Z,24.38
2022-12-14T12:45:24.851Z,18.45
2022-12-14T12:48:00.775Z,20.17
2022-12-14T12:50:36.087Z,22.83
2022-12-14T12:53:11.349Z,23.13
2022-12-14T12:55:42.669Z,25.98
2022-12-14T12:58:19.246Z,24.67
2022-12-14T13:00:51.536Z,24.80
2022-12-14T13:03:23.868Z,23.35
2022-12-14T13:05:53.324Z,24.00
2022-12-14T13:08:26.699Z,24.42
2022-12-14T13:13:49.002Z,20.23
2022-12-14T13:16:35.209Z,24.05
2022-12-14T13:22:01.827Z,24.55
2022-12-14T13:24:32.592Z,20.40
2022-12-14T13:27:17.891Z,20.48
2022-12-14T13:30:20.559Z,20.35
2022-12-14T13:33:13.170Z,25.85
2022-12-14T13:35:52.726Z,22.33
2022-12-14T13:38:38.256Z,23.50
2022-12-14T13:41:26.541Z,21.67
2022-12-14T13:44:13.520Z,23.73
2022-12-14T13:46:41.693Z,21.90
2022-12-14T13:49:18.719Z,25.20
2022-12-14T13:51:50.297Z,21.90
2022-12-14T13:54:30.590Z,22.83
2022-12-14T13:57:09.109Z,25.38
2022-12-14T13:59:45.242Z,24.48
2022-12-14T14:02:28.007Z,27.58
2022-12-14T14:05:20.239Z,27.10
2022-12-14T14:08:31.133Z,27.77
2022-12-14T14:14:45.008Z,28.92
2022-12-14T14:17:24.341Z,33.97
2022-12-14T14:19:56.327Z,27.13
2022-12-14T14:22:27.486Z,26.85
2022-12-14T14:25:02.492Z,33.60
2022-12-14T14:27:38.697Z,27.17
2022-12-14T14:30:28.929Z,27.67
2022-12-14T14:33:07.610Z,27.88
2022-12-14T14:35:43.807Z,27.38
2022-12-14T14:38:27.829Z,29.88
2022-12-14T14:41:17.444Z,31.15
2022-12-14T14:43:51.880Z,31.42
2022-12-14T14:46:23.142Z,29.75
2022-12-14T14:48:54.391Z,34.42
2022-12-14T14:51:26.302Z,35.15
2022-12-14T14:54:56.567Z,33.45
2022-12-14T14:57:35.884Z,30.77
2022-12-14T15:00:05.193Z,37.65
2022-12-14T15:02:37.983Z,31.58
2022-12-14T15:05:40.307Z,33.83
2022-12-14T15:07:54.599Z,36.53
2022-12-14T15:10:31.133Z,34.83
2022-12-14T15:13:04.149Z,31.10
2022-12-14T15:15:43.837Z,34.03
2022-12-14T15:18:20.433Z,35.33
2022-12-14T15:21:08.189Z,37.55
2022-12-14T15:23:37.862Z,35.03
2022-12-14T15:26:16.581Z,34.00
2022-12-14T15:28:52.950Z,33.72
2022-12-14T15:31:35.021Z,34.65
2022-12-14T15:34:02.683Z,32.40
2022-12-14T15:36:33.620Z,34.50
2022-12-14T15:39:00.840Z,33.80
2022-12-14T15:41:29.869Z,35.33
2022-12-14T15:44:00.027Z,32.25
2022-12-14T15:46:35.090Z,34.72
2022-12-14T15:49:04.957Z,31.95
2022-12-14T15:51:40.753Z,39.33
2022-12-14T15:56:45.938Z,37.00
2022-12-14T15:59:19.793Z,40.70
2022-12-14T16:01:54.300Z,37.50
2022-12-14T16:04:23.696Z,41.33
2022-12-14T16:07:08.581Z,41.25
2022-12-14T16:09:41.394Z,44.17
2022-12-14T16:12:40.894Z,43.13
2022-12-14T16:15:23.966Z,40.10
2022-12-14T16:17:57.511Z,41.00
2022-12-14T16:20:34.166Z,37.67
2022-12-14T16:23:27.715Z,41.05
2022-12-14T16:26:14.194Z,40.88
2022-12-14T16:28:41.582Z,40.45
2022-12-14T16:31:11.746Z,38.05
2022-12-14T16:33:43.194Z,40.80
2022-12-14T16:36:22.307Z,45.03
2022-12-14T18:43:25.771Z,52.60
2022-12-14T19:04:40.641Z,55.53
2022-12-14T20:54:18.802Z,63.58
2022-12-14T20:57:35.708Z,65.32
2022-12-14T21:04:28.043Z,60.72
2022-12-14T21:06:55.289Z,58.97
2022-12-14T21:09:22.494Z,60.67
2022-12-14T21:12:10.179Z,62.58
2022-12-14T21:14:42.393Z,69.90
2022-12-14T21:17:10.023Z,59.65
2022-12-14T21:19:37.413Z,64.57
2022-12-14T21:22:05.768Z,64.97
2022-12-14T22:51:15.092Z,68.40
2022-12-14T22:58:32.247Z,68.20
2022-12-14T23:36:19.753Z,67.30
2022-12-14T23:44:07.789Z,68.68
